Time;durP1;ratioP1;P1;durP2;ratioP2;P2;SDS_P1;SDS_P2;PMS_P1;PMS_P2;Temp;Humidity;BMP_temperature;BMP_pressure;BME280_temperature;BME280_humidity;BME280_pressure;Samples;Min_cycle;Max_cycle;Signal;HPM_P1;HPM_P2
2021/12/13 00:01:07;;;;;;;;;;;;;;;;;;5095641;28;19970;-62
2021/12/13 00:03:33;;;;;;;;;;;;;;;;;;5095582;28;19908;-62
2021/12/13 00:05:59;;;;;;;;;;;;;;;;;;5094727;28;20357;-62
2021/12/13 00:08:25;;;;;;;;;;;;;;;;;;5095438;28;19908;-62
2021/12/13 00:10:51;;;;;;;;;;;;;;;;;;5095450;28;19908;-62
2021/12/13 00:13:17;;;;;;;;;;;;;;;;;;5090008;28;19912;-71
2021/12/13 00:15:43;;;;;;;;;;;;;;;;;;5095441;28;20363;-62
2021/12/13 00:18:09;;;;;;;;;;;;;;;;;;5095259;28;19915;-63
2021/12/13 00:20:37;;;;;;;;;;;;;;;;;;5095167;28;19920;-64
2021/12/13 00:23:03;;;;;;;;;;;;;;;;;;5095328;28;20287;-62
2021/12/13 00:25:29;;;;;;;;;;;;;;;;;;5078239;28;19924;-61
2021/12/13 00:27:55;;;;;;;;;;;;;;;;;;5074849;28;20332;-72
2021/12/13 00:30:21;;;;;;;;;;;;;;;;;;5074711;28;19909;-62
2021/12/13 00:32:47;;;;;;;;;;;;;;;;;;5074559;28;20253;-63
2021/12/13 00:35:13;;;;;;;;;;;;;;;;;;5078605;28;20260;-64
2021/12/13 00:37:39;;;;;;;;;;;;;;;;;;5094704;28;19927;-63
2021/12/13 00:40:05;;;;;;;;;;;;;;;;;;5094848;28;19998;-62
2021/12/13 00:42:31;;;;;;;;;;;;;;;;;;5094948;28;19937;-62
2021/12/13 00:44:56;;;;;;;;;;;;;;;;;;5094845;28;20018;-62
2021/12/13 00:47:22;;;;;;;;;;;;;;;;;;5094890;28;19908;-61
2021/12/13 00:49:48;;;;;;;;;;;;;;;;;;5094809;28;19969;-62
2021/12/13 00:52:14;;;;;;;;;;;;;;;;;;5093404;28;19919;-62
2021/12/13 00:54:40;;;;;;;;;;;;;;;;;;5081761;28;19919;-62
2021/12/13 00:57:07;;;;;;;;;;;;;;;;;;5073088;28;20309;-61
2021/12/13 00:59:33;;;;;;;;;;;;;;;;;;5074420;28;19908;-62
2021/12/13 01:01:59;;;;;;;;;;;;;;;;;;5074216;28;20321;-62
2021/12/13 01:04:25;;;;;;;;;;;;;;;;;;5074173;28;20356;-62
2021/12/13 01:06:51;;;;;;;;;;;;;;;;;;5074132;28;19912;-67
2021/12/13 01:09:17;;;;;;;;;;;;;;;;;;5074048;28;19909;-62
2021/12/13 01:11:43;;;;;;;;;;;;;;;;;;5073901;28;20011;-69
2021/12/13 01:14:09;;;;;;;;;;;;;;;;;;5089362;28;20006;-62
2021/12/13 01:16:48;;;;;;;;;;;;;;;;;;5094329;28;20325;-64
2021/12/13 01:21:42;;;;;;;;;;;;;;;;;;5094243;28;20017;-62
2021/12/13 01:24:10;;;;;;;;;;;;;;;;;;5094059;28;19959;-61
2021/12/13 01:26:38;;;;;;;;;;;;;;;;;;5093948;28;19908;-64
2021/12/13 01:29:04;;;;;;;;;;;;;;;;;;5093980;28;19930;-62
2021/12/13 01:31:30;;;;;;;;;;;;;;;;;;5093900;28;20275;-65
2021/12/13 01:33:56;;;;;;;;;;;;;;;;;;5093933;28;20438;-62
2021/12/13 01:36:24;;;;;;;;;;;;;;;;;;5093998;28;20359;-63
2021/12/13 01:38:50;;;;;;;;;;;;;;;;;;5093584;28;19927;-63
2021/12/13 01:41:16;;;;;;;;;;;;;;;;;;5092363;28;19916;-62
2021/12/13 01:43:42;;;;;;;;;;;;;;;;;;5093703;28;19955;-62
2021/12/13 01:46:08;;;;;;;;;;;;;;;;;;5093733;28;19951;-61
2021/12/13 01:48:34;;;;;;;;;;;;;;;;;;5093685;28;19908;-66
2021/12/13 01:51:07;;;;;;;;;;;;;;;;;;5093582;28;20271;-62
2021/12/13 01:53:33;;;;;;;;;;;;;;;;;;5093537;28;19916;-62
2021/12/13 01:55:59;;;;;;;;;;;;;;;;;;5093456;28;19953;-62
2021/12/13 02:01:10;;;;;;;;;;;;;;;;;;5093218;28;19973;-62
2021/12/13 02:03:36;;;;;;;;;;;;;;;;;;5092953;28;20280;-62
2021/12/13 02:06:02;;;;;;;;;;;;;;;;;;5093241;28;19908;-62
2021/12/13 02:08:28;;;;;;;;;;;;;;;;;;5084302;28;19908;-64
2021/12/13 02:10:54;;;;;;;;;;;;;;;;;;5073060;28;19909;-62
2021/12/13 02:13:21;;;;;;;;;;;;;;;;;;5072599;28;20017;-62
2021/12/13 02:18:32;;;;;;;;;;;;;;;;;;5072560;28;19914;-65
2021/12/13 02:21:03;;;;;;;;;;;;;;;;;;5113287;27;20310;-66
2021/12/13 02:23:29;;;;;;;;;;;;;;;;;;5092843;28;19912;-71
2021/12/13 02:25:57;;;;;;;;;;;;;;;;;;5092844;28;19915;-77
2021/12/13 02:28:23;;;;;;;;;;;;;;;;;;5092855;28;19912;-73
2021/12/13 02:30:49;;;;;;;;;;;;;;;;;;5092805;28;19908;-74
2021/12/13 02:33:15;;;;;;;;;;;;;;;;;;5092858;28;19908;-73
2021/12/13 02:35:41;;;;;;;;;;;;;;;;;;5087268;28;19919;-68
2021/12/13 02:38:07;;;;;;;;;;;;;;;;;;5092711;28;20282;-68
2021/12/13 02:40:35;;;;;;;;;;;;;;;;;;5092303;28;20340;-73
2021/12/13 02:43:01;;;;;;;;;;;;;;;;;;5091512;28;19908;-72
2021/12/13 02:45:27;;;;;;;;;;;;;;;;;;5091485;28;19970;-68
2021/12/13 02:47:53;;;;;;;;;;;;;;;;;;5092592;28;20268;-70
2021/12/13 02:50:18;;;;;;;;;;;;;;;;;;5092685;28;19909;-71
2021/12/13 02:52:44;;;;;;;;;;;;;;;;;;5092671;28;19908;-64
2021/12/13 02:55:10;;;;;;;;;;;;;;;;;;5092633;28;19954;-77
2021/12/13 02:57:36;;;;;;;;;;;;;;;;;;5092436;28;19912;-75
2021/12/13 03:00:03;;;;;;;;;;;;;;;;;;5092425;28;19912;-67
2021/12/13 03:02:30;;;;;;;;;;;;;;;;;;5092507;28;20367;-75
2021/12/13 03:04:56;;;;;;;;;;;;;;;;;;5092602;28;20267;-75
2021/12/13 03:07:22;;;;;;;;;;;;;;;;;;5092378;28;19915;-73
2021/12/13 03:09:48;;;;;;;;;;;;;;;;;;5092384;28;19908;-72
2021/12/13 03:12:14;;;;;;;;;;;;;;;;;;5092494;28;19914;-70
2021/12/13 03:14:40;;;;;;;;;;;;;;;;;;5092116;28;20371;-72
2021/12/13 03:17:06;;;;;;;;;;;;;;;;;;5091877;28;19908;-76
2021/12/13 03:19:32;;;;;;;;;;;;;;;;;;5092419;28;19908;-73
2021/12/13 03:21:58;;;;;;;;;;;;;;;;;;5092037;28;19923;-69
2021/12/13 03:24:24;;;;;;;;;;;;;;;;;;5091023;28;19947;-76
2021/12/13 03:26:50;;;;;;;;;;;;;;;;;;5092295;28;19915;-77
2021/12/13 03:29:16;;;;;;;;;;;;;;;;;;5092061;28;19915;-77
2021/12/13 03:31:42;;;;;;;;;;;;;;;;;;5092098;28;20279;-76
2021/12/13 03:34:08;;;;;;;;;;;;;;;;;;5088266;28;19959;-76
2021/12/13 03:36:34;;;;;;;;;;;;;;;;;;5089512;28;19947;-73
2021/12/13 03:39:00;;;;;;;;;;;;;;;;;;5090719;28;19951;-76
2021/12/13 03:41:26;;;;;;;;;;;;;;;;;;5092675;28;20364;-64
2021/12/13 03:43:52;;;;;;;;;;;;;;;;;;5094430;28;19909;-64
2021/12/13 03:46:18;;;;;;;;;;;;;;;;;;5090812;28;19912;-76
2021/12/13 03:48:44;;;;;;;;;;;;;;;;;;5087883;28;19908;-73
2021/12/13 03:51:09;;;;;;;;;;;;;;;;;;5071780;28;19909;-76
2021/12/13 03:53:35;;;;;;;;;;;;;;;;;;5071862;28;20412;-74
2021/12/13 03:56:02;;;;;;;;;;;;;;;;;;5071589;28;19909;-72
2021/12/13 03:58:28;;;;;;;;;;;;;;;;;;5071617;28;19954;-76
2021/12/13 04:00:54;;;;;;;;;;;;;;;;;;5071486;28;19921;-75
2021/12/13 04:03:20;;;;;;;;;;;;;;;;;;5103713;28;20287;-72
2021/12/13 04:05:46;;;;;;;;;;;;;;;;;;5072822;28;19912;-71
2021/12/13 04:08:12;;;;;;;;;;;;;;;;;;5071372;28;19916;-63
2021/12/13 04:10:38;;;;;;;;;;;;;;;;;;5071363;28;19908;-68
2021/12/13 04:13:09;;;;;;;;;;;;;;;;;;5071419;28;19908;-73
2021/12/13 04:15:48;;;;;;;;;;;;;;;;;;5071423;28;19909;-73
2021/12/13 04:18:27;;;;;;;;;;;;;;;;;;5071398;28;19908;-74
2021/12/13 04:20:53;;;;;;;;;;;;;;;;;;5070016;28;19923;-69
2021/12/13 04:23:19;;;;;;;;;;;;;;;;;;5071220;28;19909;-75
2021/12/13 04:25:45;;;;;;;;;;;;;;;;;;5071204;28;19908;-73
2021/12/13 04:28:11;;;;;;;;;;;;;;;;;;5073048;28;20245;-72
2021/12/13 04:30:37;;;;;;;;;;;;;;;;;;5074847;28;19908;-67
2021/12/13 04:33:03;;;;;;;;;;;;;;;;;;5074743;28;19915;-70
2021/12/13 04:35:29;;;;;;;;;;;;;;;;;;5074756;28;19994;-71
2021/12/13 04:37:55;;;;;;;;;;;;;;;;;;5087626;28;19931;-72
2021/12/13 04:40:20;;;;;;;;;;;;;;;;;;5095058;28;19927;-75
2021/12/13 04:42:46;;;;;;;;;;;;;;;;;;5095048;28;20011;-74
2021/12/13 04:45:12;;;;;;;;;;;;;;;;;;5095000;28;19991;-76
2021/12/13 04:47:38;;;;;;;;;;;;;;;;;;5094874;28;19908;-74
2021/12/13 04:50:04;;;;;;;;;;;;;;;;;;5094685;28;20240;-71
2021/12/13 04:52:30;;;;;;;;;;;;;;;;;;5094909;28;19908;-69
2021/12/13 04:54:56;;;;;;;;;;;;;;;;;;5094812;28;19908;-64
2021/12/13 04:57:22;;;;;;;;;;;;;;;;;;5094757;28;19912;-73
2021/12/13 04:59:48;;;;;;;;;;;;;;;;;;5094875;28;20004;-69
2021/12/13 05:02:14;;;;;;;;;;;;;;;;;;5093432;28;19985;-70
2021/12/13 05:04:40;;;;;;;;;;;;;;;;;;5094579;28;20329;-70
2021/12/13 05:07:06;;;;;;;;;;;;;;;;;;5093208;28;20493;-69
2021/12/13 05:09:32;;;;;;;;;;;;;;;;;;5094557;28;19912;-67
2021/12/13 05:11:58;;;;;;;;;;;;;;;;;;5094527;28;19908;-68
2021/12/13 05:14:23;;;;;;;;;;;;;;;;;;5092935;28;19916;-76
2021/12/13 05:16:49;;;;;;;;;;;;;;;;;;5092874;28;19916;-76
2021/12/13 05:19:15;;;;;;;;;;;;;;;;;;5094069;28;19916;-76
2021/12/13 05:21:41;;;;;;;;;;;;;;;;;;5094064;28;19920;-76
2021/12/13 05:24:07;;;;;;;;;;;;;;;;;;5093837;28;19914;-76
2021/12/13 05:26:33;;;;;;;;;;;;;;;;;;5092896;28;19908;-76
2021/12/13 05:29:01;;;;;;;;;;;;;;;;;;5089350;28;20344;-73
2021/12/13 05:31:26;;;;;;;;;;;;;;;;;;5098158;28;19923;-76
2021/12/13 05:33:52;;;;;;;;;;;;;;;;;;5093849;28;19999;-74
2021/12/13 05:36:18;;;;;;;;;;;;;;;;;;5079470;28;20336;-73
2021/12/13 05:38:44;;;;;;;;;;;;;;;;;;5073055;28;20261;-75
2021/12/13 05:41:10;;;;;;;;;;;;;;;;;;5073275;28;20011;-73
2021/12/13 05:43:36;;;;;;;;;;;;;;;;;;5073536;28;20006;-76
2021/12/13 05:46:02;;;;;;;;;;;;;;;;;;5073396;28;20012;-70
2021/12/13 05:48:28;;;;;;;;;;;;;;;;;;5073198;28;19916;-75
2021/12/13 05:50:54;;;;;;;;;;;;;;;;;;5073358;28;19908;-70
2021/12/13 05:53:20;;;;;;;;;;;;;;;;;;5073323;28;20406;-67
2021/12/13 05:55:46;;;;;;;;;;;;;;;;;;5079247;28;19909;-69
2021/12/13 05:58:12;;;;;;;;;;;;;;;;;;5093185;28;20075;-63
2021/12/13 06:00:38;;;;;;;;;;;;;;;;;;5093177;28;20393;-74
2021/12/13 06:03:03;;;;;;;;;;;;;;;;;;5093079;28;19960;-76
2021/12/13 06:05:29;;;;;;;;;;;;;;;;;;5093104;28;19998;-75
2021/12/13 06:07:55;;;;;;;;;;;;;;;;;;5093118;28;20006;-75
2021/12/13 06:10:21;;;;;;;;;;;;;;;;;;5093153;28;19908;-76
2021/12/13 06:12:47;;;;;;;;;;;;;;;;;;5091033;28;19908;-68
2021/12/13 06:15:13;;;;;;;;;;;;;;;;;;5088754;28;19908;-77
2021/12/13 06:17:39;;;;;;;;;;;;;;;;;;5093004;28;19908;-75
2021/12/13 06:20:05;;;;;;;;;;;;;;;;;;5092917;28;19912;-74
2021/12/13 06:22:31;;;;;;;;;;;;;;;;;;5092944;28;19912;-69
2021/12/13 06:24:57;;;;;;;;;;;;;;;;;;5078952;28;19912;-68
2021/12/13 06:27:23;;;;;;;;;;;;;;;;;;5072420;28;19963;-67
2021/12/13 06:29:49;;;;;;;;;;;;;;;;;;5072861;28;20492;-74
2021/12/13 06:32:15;;;;;;;;;;;;;;;;;;5072413;28;19919;-77
2021/12/13 06:34:40;;;;;;;;;;;;;;;;;;5072539;28;19908;-70
2021/12/13 06:37:06;;;;;;;;;;;;;;;;;;5087730;28;19959;-77
2021/12/13 06:39:32;;;;;;;;;;;;;;;;;;5072325;28;19999;-74
2021/12/13 06:41:58;;;;;;;;;;;;;;;;;;5072171;28;20380;-77
2021/12/13 06:44:31;;;;;;;;;;;;;;;;;;5072190;28;19908;-74
2021/12/13 06:46:57;;;;;;;;;;;;;;;;;;5072580;28;19960;-69
2021/12/13 06:49:22;;;;;;;;;;;;;;;;;;5071961;28;20275;-67
2021/12/13 06:51:48;;;;;;;;;;;;;;;;;;5071955;28;19909;-75
2021/12/13 06:54:14;;;;;;;;;;;;;;;;;;5087633;28;19962;-69
2021/12/13 06:56:40;;;;;;;;;;;;;;;;;;5087526;28;20283;-75
2021/12/13 06:59:06;;;;;;;;;;;;;;;;;;5071967;28;19915;-74
2021/12/13 07:01:32;;;;;;;;;;;;;;;;;;5071783;28;20318;-73
2021/12/13 07:03:58;;;;;;;;;;;;;;;;;;5071939;28;20347;-72
2021/12/13 07:06:24;;;;;;;;;;;;;;;;;;5071835;28;19948;-70
2021/12/13 07:08:50;;;;;;;;;;;;;;;;;;5071559;28;19915;-73
2021/12/13 07:11:18;;;;;;;;;;;;;;;;;;5071918;28;19912;-68
2021/12/13 07:13:44;;;;;;;;;;;;;;;;;;5071517;28;20403;-72
2021/12/13 07:16:12;;;;;;;;;;;;;;;;;;5071874;28;19988;-69
2021/12/13 07:18:38;;;;;;;;;;;;;;;;;;5071831;28;19909;-61
2021/12/13 07:21:04;;;;;;;;;;;;;;;;;;5071554;28;20024;-75
2021/12/13 07:23:30;;;;;;;;;;;;;;;;;;5088274;28;20359;-70
2021/12/13 07:25:56;;;;;;;;;;;;;;;;;;5087866;28;20387;-74
2021/12/13 07:28:21;;;;;;;;;;;;;;;;;;5090150;28;19908;-75
2021/12/13 07:30:47;;;;;;;;;;;;;;;;;;5090604;28;20013;-76
2021/12/13 07:33:13;;;;;;;;;;;;;;;;;;5106102;28;20384;-76
2021/12/13 07:35:40;;;;;;;;;;;;;;;;;;5098083;28;19962;-76
2021/12/13 07:38:06;;;;;;;;;;;;;;;;;;5087527;28;19927;-73
2021/12/13 07:40:32;;;;;;;;;;;;;;;;;;5071170;28;19917;-62
2021/12/13 07:42:58;;;;;;;;;;;;;;;;;;5071564;28;20003;-69
2021/12/13 07:45:24;;;;;;;;;;;;;;;;;;5071697;28;19915;-71
2021/12/13 07:47:50;;;;;;;;;;;;;;;;;;5071639;28;19912;-75
2021/12/13 07:50:16;;;;;;;;;;;;;;;;;;5088485;28;19916;-74
2021/12/13 07:52:42;;;;;;;;;;;;;;;;;;5091533;28;19908;-70
2021/12/13 07:55:08;;;;;;;;;;;;;;;;;;5091087;28;19908;-66
2021/12/13 07:57:34;;;;;;;;;;;;;;;;;;5091566;28;20286;-69
2021/12/13 08:00:00;;;;;;;;;;;;;;;;;;5090127;28;19915;-74
2021/12/13 08:02:26;;;;;;;;;;;;;;;;;;5092257;28;20011;-65
2021/12/13 08:04:52;;;;;;;;;;;;;;;;;;5095452;28;19994;-69
2021/12/13 08:07:18;;;;;;;;;;;;;;;;;;5095371;28;19908;-74
2021/12/13 08:09:44;;;;;;;;;;;;;;;;;;5099380;28;19912;-75
2021/12/13 08:12:10;;;;;;;;;;;;;;;;;;5094802;28;19931;-67
2021/12/13 08:14:36;;;;;;;;;;;;;;;;;;5079867;28;19970;-68
2021/12/13 08:17:02;;;;;;;;;;;;;;;;;;5074859;28;19943;-73
2021/12/13 08:19:28;;;;;;;;;;;;;;;;;;5074964;28;19990;-63
2021/12/13 08:21:54;;;;;;;;;;;;;;;;;;5074630;28;20367;-70
2021/12/13 08:24:20;;;;;;;;;;;;;;;;;;5074529;28;19951;-74
2021/12/13 08:26:46;;;;;;;;;;;;;;;;;;5085248;28;19919;-68
2021/12/13 08:29:12;;;;;;;;;;;;;;;;;;5094070;28;19909;-76
2021/12/13 08:31:39;;;;;;;;;;;;;;;;;;5074659;28;19908;-76
2021/12/13 08:34:05;;;;;;;;;;;;;;;;;;5074776;28;19912;-68
2021/12/13 08:36:31;;;;;;;;;;;;;;;;;;5075615;28;19928;-73
2021/12/13 08:38:57;;;;;;;;;;;;;;;;;;5084669;28;19924;-77
2021/12/13 08:41:23;;;;;;;;;;;;;;;;;;5094780;28;19916;-78
2021/12/13 08:43:50;;;;;;;;;;;;;;;;;;5094767;28;19958;-77
2021/12/13 08:46:15;;;;;;;;;;;;;;;;;;5084164;28;19912;-70
2021/12/13 08:48:41;;;;;;;;;;;;;;;;;;5074382;28;20505;-73
2021/12/13 08:51:07;;;;;;;;;;;;;;;;;;5074668;28;19909;-72
2021/12/13 08:53:35;;;;;;;;;;;;;;;;;;5075004;28;20003;-78
2021/12/13 08:56:00;;;;;;;;;;;;;;;;;;5090389;28;19909;-77
2021/12/13 08:58:26;;;;;;;;;;;;;;;;;;5090327;28;20245;-77
2021/12/13 09:00:52;;;;;;;;;;;;;;;;;;5091522;28;19928;-82
2021/12/13 09:03:20;;;;;;;;;;;;;;;;;;5094594;28;19915;-78
2021/12/13 09:05:47;;;;;;;;;;;;;;;;;;5094123;28;19904;-77
2021/12/13 09:08:13;;;;;;;;;;;;;;;;;;5094247;28;19908;-81
2021/12/13 09:10:39;;;;;;;;;;;;;;;;;;5094544;28;19908;-82
2021/12/13 09:13:05;;;;;;;;;;;;;;;;;;5093371;28;20274;-78
2021/12/13 09:15:33;;;;;;;;;;;;;;;;;;5094274;28;19908;-79
2021/12/13 09:17:59;;;;;;;;;;;;;;;;;;5094575;28;19908;-78
2021/12/13 09:20:25;;;;;;;;;;;;;;;;;;5094165;28;19909;-76
2021/12/13 09:22:51;;;;;;;;;;;;;;;;;;5094101;28;20386;-77
2021/12/13 09:25:18;;;;;;;;;;;;;;;;;;5094300;28;19908;-75
2021/12/13 09:27:44;;;;;;;;;;;;;;;;;;5092497;28;19908;-71
2021/12/13 09:30:10;;;;;;;;;;;;;;;;;;5093132;28;19943;-69
2021/12/13 09:32:36;;;;;;;;;;;;;;;;;;5094587;28;20261;-68
2021/12/13 09:35:02;;;;;;;;;;;;;;;;;;5093038;28;20379;-79
2021/12/13 09:37:28;;;;;;;;;;;;;;;;;;5094107;28;20056;-72
2021/12/13 09:39:54;;;;;;;;;;;;;;;;;;5092998;28;20395;-76
2021/12/13 09:42:20;;;;;;;;;;;;;;;;;;5094112;28;19916;-73
2021/12/13 09:44:48;;;;;;;;;;;;;;;;;;5093863;28;19961;-77
2021/12/13 09:47:14;;;;;;;;;;;;;;;;;;5093694;28;19915;-77
2021/12/13 09:49:40;;;;;;;;;;;;;;;;;;5093666;28;19908;-77
2021/12/13 09:52:06;;;;;;;;;;;;;;;;;;5093746;28;20371;-79
2021/12/13 09:54:32;;;;;;;;;;;;;;;;;;5093624;28;19915;-79
2021/12/13 09:56:58;;;;;;;;;;;;;;;;;;5094803;28;19934;-85
2021/12/13 09:59:24;;;;;;;;;;;;;;;;;;5112984;28;19908;-70
2021/12/13 10:01:50;;;;;;;;;;;;;;;;;;5092720;28;19923;-76
2021/12/13 10:04:16;;;;;;;;;;;;;;;;;;5092999;28;20036;-62
2021/12/13 10:06:42;;;;;;;;;;;;;;;;;;5093329;28;19951;-79
2021/12/13 10:09:08;;;;;;;;;;;;;;;;;;5093312;28;20423;-71
2021/12/13 10:11:34;;;;;;;;;;;;;;;;;;5093380;28;20060;-75
2021/12/13 10:14:00;;;;;;;;;;;;;;;;;;5092892;28;19955;-76
2021/12/13 10:16:26;;;;;;;;;;;;;;;;;;5091848;28;20348;-66
2021/12/13 10:18:52;;;;;;;;;;;;;;;;;;5092848;28;20002;-77
2021/12/13 10:21:18;;;;;;;;;;;;;;;;;;5092646;28;20425;-78
2021/12/13 10:23:45;;;;;;;;;;;;;;;;;;5093106;28;19908;-71
2021/12/13 10:26:11;;;;;;;;;;;;;;;;;;5092737;28;20282;-76
2021/12/13 10:28:37;;;;;;;;;;;;;;;;;;5092987;28;20536;-76
2021/12/13 10:31:03;;;;;;;;;;;;;;;;;;5079964;28;20004;-75
2021/12/13 10:33:29;;;;;;;;;;;;;;;;;;5087618;28;20003;-78
2021/12/13 10:35:55;;;;;;;;;;;;;;;;;;5071859;28;20003;-78
2021/12/13 10:38:21;;;;;;;;;;;;;;;;;;5072184;28;19991;-78
2021/12/13 10:40:47;;;;;;;;;;;;;;;;;;5072415;28;20279;-63
2021/12/13 10:43:13;;;;;;;;;;;;;;;;;;5072595;28;19915;-66
2021/12/13 10:45:40;;;;;;;;;;;;;;;;;;5072330;28;20355;-74
2021/12/13 10:48:06;;;;;;;;;;;;;;;;;;5088049;28;19912;-75
2021/12/13 10:50:32;;;;;;;;;;;;;;;;;;5092147;28;19908;-73
2021/12/13 10:52:58;;;;;;;;;;;;;;;;;;5092740;28;19915;-77
2021/12/13 10:55:24;;;;;;;;;;;;;;;;;;5092801;28;19916;-66
2021/12/13 10:57:50;;;;;;;;;;;;;;;;;;5092462;28;19908;-73
2021/12/13 11:00:16;;;;;;;;;;;;;;;;;;5091176;28;20409;-73
2021/12/13 11:02:42;;;;;;;;;;;;;;;;;;5092622;28;19916;-73
2021/12/13 11:05:08;;;;;;;;;;;;;;;;;;5079061;28;19920;-63
2021/12/13 11:07:34;;;;;;;;;;;;;;;;;;5073345;28;19912;-69
2021/12/13 11:10:00;;;;;;;;;;;;;;;;;;5090604;28;20439;-77
2021/12/13 11:12:26;;;;;;;;;;;;;;;;;;5092500;28;20419;-83
2021/12/13 11:14:51;;;;;;;;;;;;;;;;;;5092095;28;20369;-74
2021/12/13 11:17:17;;;;;;;;;;;;;;;;;;5092370;28;19908;-77
2021/12/13 11:19:45;;;;;;;;;;;;;;;;;;5092505;28;20003;-83
2021/12/13 11:22:11;;;;;;;;;;;;;;;;;;5093763;28;19956;-86
2021/12/13 11:24:37;;;;;;;;;;;;;;;;;;5085483;28;19959;-84
2021/12/13 11:27:03;;;;;;;;;;;;;;;;;;5073284;28;20352;-86
2021/12/13 11:29:30;;;;;;;;;;;;;;;;;;5074072;28;19934;-88
2021/12/13 11:31:56;;;;;;;;;;;;;;;;;;5089147;28;19908;-78
2021/12/13 11:34:22;;;;;;;;;;;;;;;;;;5094405;28;19935;-71
2021/12/13 11:36:48;;;;;;;;;;;;;;;;;;5087905;28;19963;-72
2021/12/13 11:39:14;;;;;;;;;;;;;;;;;;5077492;28;20003;-67
2021/12/13 11:41:40;;;;;;;;;;;;;;;;;;5075605;28;19916;-67
2021/12/13 11:44:06;;;;;;;;;;;;;;;;;;5091148;28;19909;-69
2021/12/13 11:46:32;;;;;;;;;;;;;;;;;;5075606;28;20007;-62
2021/12/13 11:48:58;;;;;;;;;;;;;;;;;;5075243;28;20324;-64
2021/12/13 11:51:24;;;;;;;;;;;;;;;;;;5075586;28;19909;-62
2021/12/13 11:53:50;;;;;;;;;;;;;;;;;;5075919;28;19909;-62
2021/12/13 11:56:16;;;;;;;;;;;;;;;;;;5075726;28;20283;-62
2021/12/13 11:58:42;;;;;;;;;;;;;;;;;;5075390;28;19915;-69
2021/12/13 12:01:08;;;;;;;;;;;;;;;;;;5075782;28;19979;-67
2021/12/13 12:03:34;;;;;;;;;;;;;;;;;;5090970;28;20264;-75
2021/12/13 12:06:00;;;;;;;;;;;;;;;;;;5075405;28;20348;-67
2021/12/13 12:08:26;;;;;;;;;;;;;;;;;;5075380;28;19913;-82
2021/12/13 12:10:52;;;;;;;;;;;;;;;;;;5091553;28;19908;-83
2021/12/13 12:13:19;;;;;;;;;;;;;;;;;;5074992;28;19916;-80
2021/12/13 12:15:45;;;;;;;;;;;;;;;;;;5075657;28;19912;-78
2021/12/13 12:18:11;;;;;;;;;;;;;;;;;;5075375;28;19916;-82
2021/12/13 12:20:37;;;;;;;;;;;;;;;;;;5090767;28;19931;-81
2021/12/13 12:23:03;;;;;;;;;;;;;;;;;;5075147;28;19961;-83
2021/12/13 12:25:29;;;;;;;;;;;;;;;;;;5074980;28;19973;-80
2021/12/13 12:27:55;;;;;;;;;;;;;;;;;;5090740;28;19962;-80
2021/12/13 12:30:21;;;;;;;;;;;;;;;;;;5075363;28;20359;-80
2021/12/13 12:32:47;;;;;;;;;;;;;;;;;;5075464;28;19908;-81
2021/12/13 12:35:13;;;;;;;;;;;;;;;;;;5074930;28;19909;-83
2021/12/13 12:37:40;;;;;;;;;;;;;;;;;;5074758;28;19973;-82
2021/12/13 12:40:06;;;;;;;;;;;;;;;;;;5075189;28;19951;-69
2021/12/13 12:42:32;;;;;;;;;;;;;;;;;;5074717;28;19966;-78
2021/12/13 12:44:58;;;;;;;;;;;;;;;;;;5074920;28;19909;-80
2021/12/13 12:47:24;;;;;;;;;;;;;;;;;;5074727;28;20003;-88
2021/12/13 12:49:50;;;;;;;;;;;;;;;;;;5075545;28;19916;-88
2021/12/13 12:52:15;;;;;;;;;;;;;;;;;;5091320;28;20363;-83
2021/12/13 12:54:41;;;;;;;;;;;;;;;;;;5076040;28;19961;-85
2021/12/13 12:57:07;;;;;;;;;;;;;;;;;;5075302;28;19908;-81
2021/12/13 12:59:33;;;;;;;;;;;;;;;;;;5089795;28;20014;-81
2021/12/13 13:01:59;;;;;;;;;;;;;;;;;;5074017;28;19961;-79
2021/12/13 13:04:25;;;;;;;;;;;;;;;;;;5074589;28;20348;-80
2021/12/13 13:06:51;;;;;;;;;;;;;;;;;;5075519;28;19919;-88
2021/12/13 13:09:17;;;;;;;;;;;;;;;;;;5094209;28;19999;-74
2021/12/13 13:11:43;;;;;;;;;;;;;;;;;;5095788;28;19904;-80
2021/12/13 13:14:10;;;;;;;;;;;;;;;;;;5098099;28;19915;-77
2021/12/13 13:16:36;;;;;;;;;;;;;;;;;;5107814;28;19908;-72
2021/12/13 13:19:02;;;;;;;;;;;;;;;;;;5099807;28;19915;-73
2021/12/13 13:21:28;;;;;;;;;;;;;;;;;;5094982;28;19916;-83
2021/12/13 13:23:54;;;;;;;;;;;;;;;;;;5095500;28;19912;-74
2021/12/13 13:26:19;;;;;;;;;;;;;;;;;;5095165;28;19943;-84
2021/12/13 13:28:45;;;;;;;;;;;;;;;;;;5095590;28;20264;-71
2021/12/13 13:31:11;;;;;;;;;;;;;;;;;;5096016;28;20013;-87
2021/12/13 13:33:38;;;;;;;;;;;;;;;;;;5095792;28;20258;-68
2021/12/13 13:36:03;;;;;;;;;;;;;;;;;;5095116;28;20279;-85
2021/12/13 13:38:29;;;;;;;;;;;;;;;;;;5095547;28;20376;-89
2021/12/13 13:40:55;;;;;;;;;;;;;;;;;;5095850;28;20007;-76
2021/12/13 13:43:21;;;;;;;;;;;;;;;;;;5095997;28;19945;-86
2021/12/13 13:45:47;;;;;;;;;;;;;;;;;;5095782;28;20329;-77
2021/12/13 13:48:15;;;;;;;;;;;;;;;;;;5096483;28;19908;-87
2021/12/13 13:50:41;;;;;;;;;;;;;;;;;;5095694;28;19908;-91
2021/12/13 13:53:07;;;;;;;;;;;;;;;;;;5095898;28;19915;-92
2021/12/13 13:55:33;;;;;;;;;;;;;;;;;;5095627;28;19908;-91
2021/12/13 13:57:58;;;;;;;;;;;;;;;;;;5095755;28;20444;-82
2021/12/13 14:00:24;;;;;;;;;;;;;;;;;;5094294;28;20271;-83
2021/12/13 14:02:50;;;;;;;;;;;;;;;;;;5094892;28;19912;-84
2021/12/13 14:05:16;;;;;;;;;;;;;;;;;;5094837;28;19909;-77
2021/12/13 14:07:42;;;;;;;;;;;;;;;;;;5089748;28;19919;-72
2021/12/13 14:10:08;;;;;;;;;;;;;;;;;;5079703;28;19954;-74
2021/12/13 14:12:34;;;;;;;;;;;;;;;;;;5083061;28;19936;-78
2021/12/13 14:15:00;;;;;;;;;;;;;;;;;;5083114;28;19909;-81
2021/12/13 14:17:26;;;;;;;;;;;;;;;;;;5076543;28;20382;-84
2021/12/13 14:19:52;;;;;;;;;;;;;;;;;;5074162;28;20355;-85
2021/12/13 14:22:18;;;;;;;;;;;;;;;;;;5073312;28;20007;-78
2021/12/13 14:24:44;;;;;;;;;;;;;;;;;;5073142;28;20439;-83
2021/12/13 14:27:10;;;;;;;;;;;;;;;;;;5073817;28;20003;-76
2021/12/13 14:29:36;;;;;;;;;;;;;;;;;;5073941;28;20011;-79
2021/12/13 14:32:02;;;;;;;;;;;;;;;;;;5074038;28;19963;-85
2021/12/13 14:34:28;;;;;;;;;;;;;;;;;;5073861;28;19908;-80
2021/12/13 14:36:55;;;;;;;;;;;;;;;;;;5073518;28;20396;-86
2021/12/13 14:39:24;;;;;;;;;;;;;;;;;;5073899;28;19923;-85
2021/12/13 14:41:50;;;;;;;;;;;;;;;;;;5073366;28;19940;-85
2021/12/13 14:44:16;;;;;;;;;;;;;;;;;;5073865;28;19969;-85
2021/12/13 14:46:42;;;;;;;;;;;;;;;;;;5073820;28;19912;-88
2021/12/13 14:49:08;;;;;;;;;;;;;;;;;;5074011;28;20352;-86
2021/12/13 14:51:33;;;;;;;;;;;;;;;;;;5073966;28;19944;-87
2021/12/13 14:53:59;;;;;;;;;;;;;;;;;;5073410;28;19908;-84
2021/12/13 14:56:25;;;;;;;;;;;;;;;;;;5072976;28;19909;-87
2021/12/13 14:58:51;;;;;;;;;;;;;;;;;;5072209;28;19999;-80
2021/12/13 15:01:17;;;;;;;;;;;;;;;;;;5071364;28;20011;-78
2021/12/13 15:03:43;;;;;;;;;;;;;;;;;;5072693;28;19951;-79
2021/12/13 15:06:09;;;;;;;;;;;;;;;;;;5072747;28;19932;-81
2021/12/13 15:08:35;;;;;;;;;;;;;;;;;;5072915;28;20267;-84
2021/12/13 15:11:01;;;;;;;;;;;;;;;;;;5071559;28;19916;-76
2021/12/13 15:13:27;;;;;;;;;;;;;;;;;;5072712;28;19915;-79
2021/12/13 15:15:53;;;;;;;;;;;;;;;;;;5073238;28;19909;-87
2021/12/13 15:18:20;;;;;;;;;;;;;;;;;;5072150;28;20508;-78
2021/12/13 15:20:45;;;;;;;;;;;;;;;;;;5072146;28;19920;-66
2021/12/13 15:23:11;;;;;;;;;;;;;;;;;;5072670;28;20028;-85
2021/12/13 15:25:37;;;;;;;;;;;;;;;;;;5072547;28;20007;-82
2021/12/13 15:28:03;;;;;;;;;;;;;;;;;;5071992;28;19951;-77
2021/12/13 15:30:29;;;;;;;;;;;;;;;;;;5072346;28;19947;-81
2021/12/13 15:32:55;;;;;;;;;;;;;;;;;;5072688;28;19954;-83
2021/12/13 15:35:21;;;;;;;;;;;;;;;;;;5072977;28;19962;-82
2021/12/13 15:37:48;;;;;;;;;;;;;;;;;;5073525;28;19973;-88
2021/12/13 15:40:13;;;;;;;;;;;;;;;;;;5073614;28;19999;-84
2021/12/13 15:42:39;;;;;;;;;;;;;;;;;;5072601;28;19955;-81
2021/12/13 15:45:05;;;;;;;;;;;;;;;;;;5072212;28;20293;-85
2021/12/13 15:50:16;;;;;;;;;;;;;;;;;;5072040;28;19920;-80
2021/12/13 15:52:42;;;;;;;;;;;;;;;;;;5071806;28;19909;-82
2021/12/13 15:55:08;;;;;;;;;;;;;;;;;;5072353;28;19909;-73
2021/12/13 15:57:35;;;;;;;;;;;;;;;;;;5072396;28;20277;-83
2021/12/13 16:00:02;;;;;;;;;;;;;;;;;;5072207;28;19908;-85
2021/12/13 16:02:28;;;;;;;;;;;;;;;;;;5072986;28;19974;-78
2021/12/13 16:04:55;;;;;;;;;;;;;;;;;;5072750;28;19909;-80
2021/12/13 16:07:21;;;;;;;;;;;;;;;;;;5072264;28;20003;-80
2021/12/13 16:09:48;;;;;;;;;;;;;;;;;;5091059;28;19985;-80
2021/12/13 16:12:14;;;;;;;;;;;;;;;;;;5093279;28;20359;-78
2021/12/13 16:14:41;;;;;;;;;;;;;;;;;;5091990;28;20007;-73
2021/12/13 16:17:07;;;;;;;;;;;;;;;;;;5091266;28;19904;-79
2021/12/13 16:19:33;;;;;;;;;;;;;;;;;;5093600;28;20098;-90
2021/12/13 16:21:59;;;;;;;;;;;;;;;;;;5093790;28;19916;-85
2021/12/13 16:24:25;;;;;;;;;;;;;;;;;;5097173;28;20417;-82
2021/12/13 16:26:51;;;;;;;;;;;;;;;;;;5097519;28;20375;-87
2021/12/13 16:29:17;;;;;;;;;;;;;;;;;;5096813;28;20168;-83
2021/12/13 16:31:43;;;;;;;;;;;;;;;;;;5096852;28;19912;-83
2021/12/13 16:34:10;;;;;;;;;;;;;;;;;;5096761;28;19970;-78
2021/12/13 16:36:36;;;;;;;;;;;;;;;;;;5096598;28;19908;-83
2021/12/13 16:39:02;;;;;;;;;;;;;;;;;;5096402;28;20307;-74
2021/12/13 16:41:28;;;;;;;;;;;;;;;;;;5095690;28;19916;-66
2021/12/13 16:43:54;;;;;;;;;;;;;;;;;;5094387;28;20365;-77
2021/12/13 16:46:20;;;;;;;;;;;;;;;;;;5094538;28;19914;-77
2021/12/13 16:48:46;;;;;;;;;;;;;;;;;;5097855;28;19912;-77